createdAt,value
2022-08-17T00:07:25.781Z,994.75
2022-08-17T00:17:32.985Z,994.91
2022-08-17T00:27:40.371Z,994.91
2022-08-17T00:37:47.148Z,994.85
2022-08-17T00:49:26.216Z,994.84
2022-08-17T00:59:31.990Z,994.88
2022-08-17T01:09:38.953Z,994.95
2022-08-17T01:19:45.869Z,994.93
2022-08-17T01:29:53.231Z,994.99
2022-08-17T01:40:00.510Z,994.97
2022-08-17T01:50:08.077Z,994.94
2022-08-17T02:00:14.895Z,995.05
2022-08-17T02:10:22.126Z,994.94
2022-08-17T02:20:41.985Z,994.88
2022-08-17T02:31:01.105Z,994.80
2022-08-17T02:40:53.373Z,994.76
2022-08-17T02:51:00.893Z,994.77
2022-08-17T03:01:08.197Z,994.72
2022-08-17T03:11:15.569Z,994.76
2022-08-17T03:21:22.676Z,994.66
2022-08-17T03:31:29.558Z,994.64
2022-08-17T03:41:36.619Z,994.74
2022-08-17T03:51:43.909Z,994.72
2022-08-17T04:01:51.398Z,994.74
2022-08-17T04:12:02.358Z,994.72
2022-08-17T04:22:10.889Z,994.76
2022-08-17T04:33:05.526Z,994.93
2022-08-17T04:42:35.058Z,995.02
2022-08-17T04:52:43.703Z,995.07
2022-08-17T05:02:51.138Z,995.16
2022-08-17T05:12:58.605Z,995.28
2022-08-17T05:23:05.957Z,995.35
2022-08-17T05:33:13.399Z,995.37
2022-08-17T05:43:20.865Z,995.37
2022-08-17T05:53:28.024Z,995.37
2022-08-17T06:03:34.752Z,995.36
2022-08-17T06:13:42.265Z,995.38
2022-08-17T06:23:49.440Z,995.42
2022-08-17T06:33:56.809Z,995.30
2022-08-17T06:44:03.895Z,995.35
2022-08-17T06:54:11.157Z,995.29
2022-08-17T07:04:18.532Z,995.25
2022-08-17T07:14:25.713Z,995.18
2022-08-17T07:24:32.626Z,995.07
2022-08-17T07:34:39.226Z,995.02
2022-08-17T07:44:45.831Z,995.14
2022-08-17T07:54:52.734Z,995.14
2022-08-17T08:05:01.088Z,995.18
2022-08-17T08:15:08.782Z,995.13
2022-08-17T08:25:15.681Z,995.11
2022-08-17T08:35:22.945Z,995.13
2022-08-17T08:45:29.676Z,995.11
2022-08-17T08:55:36.063Z,995.05
2022-08-17T09:05:43.237Z,994.88
2022-08-17T09:15:50.608Z,994.78
2022-08-17T09:25:57.147Z,994.66
2022-08-17T09:36:03.464Z,994.50
2022-08-17T09:46:09.828Z,994.56
2022-08-17T09:56:16.277Z,994.51
2022-08-17T10:06:24.285Z,994.48
2022-08-17T10:16:30.525Z,994.39
2022-08-17T10:26:55.948Z,994.36
2022-08-17T10:36:48.679Z,994.29
2022-08-17T10:46:54.860Z,994.26
2022-08-17T10:57:01.022Z,994.07
2022-08-17T11:07:08.757Z,994.12
2022-08-17T11:17:16.691Z,994.11
2022-08-17T11:27:25.373Z,994.07
2022-08-17T11:37:32.145Z,993.89
2022-08-17T11:47:38.528Z,994.02
2022-08-17T11:57:45.236Z,994.07
2022-08-17T12:07:51.738Z,993.90
2022-08-17T12:17:58.397Z,993.89
2022-08-17T12:28:07.614Z,993.81
2022-08-17T12:38:26.792Z,993.75
2022-08-17T12:48:26.019Z,993.74
2022-08-17T12:58:31.941Z,993.52
2022-08-17T13:08:39.971Z,993.38
2022-08-17T13:18:46.370Z,993.32
2022-08-17T13:28:52.624Z,993.36
2022-08-17T13:38:59.226Z,993.45
2022-08-17T13:49:05.139Z,993.51
2022-08-17T13:59:14.265Z,993.50
2022-08-17T14:09:19.705Z,993.38
2022-08-17T14:19:28.501Z,993.33
2022-08-17T14:29:34.332Z,993.26
2022-08-17T14:39:41.270Z,993.22
2022-08-17T14:49:47.740Z,993.24
2022-08-17T14:59:55.164Z,993.19
2022-08-17T15:10:01.759Z,993.15
2022-08-17T15:20:14.149Z,993.16
2022-08-17T15:30:19.793Z,993.10
2022-08-17T15:40:26.175Z,993.29
2022-08-17T15:50:32.524Z,993.11
2022-08-17T16:00:49.393Z,993.02
2022-08-17T16:10:49.734Z,993.11
2022-08-17T16:20:56.134Z,993.04
2022-08-17T16:31:02.256Z,993.26
2022-08-17T16:41:08.717Z,993.34
2022-08-17T16:51:15.100Z,993.40
2022-08-17T17:01:21.213Z,993.58
2022-08-17T17:11:27.645Z,993.62
2022-08-17T17:21:33.786Z,993.61
2022-08-17T17:31:40.178Z,993.60
2022-08-17T17:41:46.233Z,993.65
2022-08-17T17:52:03.568Z,993.71
2022-08-17T18:02:03.701Z,993.81
2022-08-17T18:12:10.347Z,993.83
2022-08-17T18:22:18.799Z,993.80
2022-08-17T18:32:24.880Z,993.85
2022-08-17T18:42:31.307Z,993.79
2022-08-17T18:52:37.444Z,993.82
2022-08-17T19:02:45.998Z,993.83
2022-08-17T19:12:52.090Z,993.92
2022-08-17T19:22:59.787Z,994.05
2022-08-17T19:33:05.739Z,994.00
2022-08-17T19:43:14.375Z,994.06
2022-08-17T19:53:21.749Z,994.07
2022-08-17T20:03:29.673Z,994.15
2022-08-17T20:13:35.394Z,994.08
2022-08-17T20:23:42.688Z,994.09
2022-08-17T20:33:50.128Z,994.09
2022-08-17T20:43:58.290Z,994.03
2022-08-17T20:54:04.661Z,994.01
2022-08-17T21:04:13.992Z,994.10
2022-08-17T21:14:21.038Z,994.28
2022-08-17T21:24:28.173Z,994.29
2022-08-17T21:34:35.316Z,994.37
2022-08-17T21:44:42.609Z,994.44
2022-08-17T21:54:49.729Z,994.55
2022-08-17T22:04:57.115Z,994.57
2022-08-17T22:15:04.514Z,994.67
2022-08-17T22:25:12.029Z,994.63
2022-08-17T22:35:19.616Z,994.67
2022-08-17T22:45:27.045Z,994.64
2022-08-17T22:55:34.385Z,994.63
2022-08-17T23:05:41.724Z,994.61
2022-08-17T23:15:49.053Z,994.62
2022-08-17T23:26:03.150Z,994.58
2022-08-17T23:36:10.658Z,994.47
2022-08-17T23:46:17.963Z,994.55
2022-08-17T23:56:25.834Z,994.57
